Terminal Aerodrome Forecast
Issued by NWS Jackson, KY

Home | Current Version | Previous Version | Text Only | Print | Product List | Glossary On
Versions: 1 2 3 4 5 6 7 8 9 10 11 12 13 14 15 16 17 18 19 20 21 22
000
FTUS43 KJKL 242320
TAFLOZ
TAF
KLOZ 242320Z 2500/2524 23014G26KT P6SM FEW029 BKN045
     FM250300 23005KT P6SM VCSH SCT010 OVC020
     FM250800 23005KT P6SM VCSH OVC010
     FM251200 23008KT 5SM SHRA OVC008=

USA.gov is the U.S. government's official web portal to all federal, state and local government web resources and services.